Time;durP1;ratioP1;P1;durP2;ratioP2;P2;SDS_P1;SDS_P2;PMS_P1;PMS_P2;Temp;Humidity;BMP_temperature;BMP_pressure;BME280_temperature;BME280_humidity;BME280_pressure;Samples;Min_cycle;Max_cycle;Signal;HPM_P1;HPM_P2
2023/03/29 00:00:43;;;;;;;2.13;1.00;;;18.30;76.10;;;;;;5025993;28;20136;-65
2023/03/29 00:03:09;;;;;;;1.63;0.82;;;18.30;76.10;;;;;;5025243;28;20045;-66
2023/03/29 00:05:37;;;;;;;2.10;1.13;;;18.30;76.00;;;;;;5026863;28;20054;-65
2023/03/29 00:08:03;;;;;;;2.35;1.00;;;18.30;76.10;;;;;;5025552;28;20494;-65
2023/03/29 00:10:33;;;;;;;2.13;0.95;;;18.30;76.10;;;;;;5026603;28;20187;-65
2023/03/29 00:13:00;;;;;;;1.35;0.88;;;18.30;76.10;;;;;;5025883;28;20283;-65
2023/03/29 00:15:25;;;;;;;1.70;0.93;;;18.30;76.20;;;;;;5026216;28;20080;-66
2023/03/29 00:17:51;;;;;;;2.22;1.00;;;18.30;76.20;;;;;;5026332;28;20511;-66
2023/03/29 00:20:17;;;;;;;2.03;1.08;;;18.20;76.10;;;;;;5025893;28;20129;-65
2023/03/29 00:22:45;;;;;;;1.80;0.90;;;18.20;76.20;;;;;;5025314;28;20053;-66
2023/03/29 00:25:11;;;;;;;2.40;1.15;;;18.20;76.10;;;;;;5026046;28;20107;-66
2023/03/29 00:27:38;;;;;;;1.73;0.95;;;18.20;76.20;;;;;;5023546;28;20558;-66
2023/03/29 00:30:06;;;;;;;1.88;0.80;;;18.20;76.20;;;;;;5026086;28;20068;-65
2023/03/29 00:32:32;;;;;;;2.30;1.10;;;18.30;76.30;;;;;;5025592;28;20132;-65
2023/03/29 00:34:59;;;;;;;2.17;1.10;;;18.20;76.30;;;;;;5025076;28;20121;-66
2023/03/29 00:37:29;;;;;;;1.95;0.90;;;18.20;76.30;;;;;;5024019;28;20101;-65
2023/03/29 00:39:56;;;;;;;2.00;0.90;;;18.20;76.30;;;;;;5024948;28;20160;-65
2023/03/29 00:42:23;;;;;;;2.97;1.00;;;18.20;76.30;;;;;;5025455;28;20049;-65
2023/03/29 00:45:19;;;;;;;2.22;1.00;;;18.20;76.30;;;;;;5025423;28;20133;-66
2023/03/29 00:47:52;;;;;;;3.55;1.08;;;18.20;76.40;;;;;;5025884;28;20531;-65
2023/03/29 00:50:30;;;;;;;1.73;0.90;;;18.20;76.40;;;;;;5025661;28;20045;-66
2023/03/29 00:53:12;;;;;;;2.40;1.00;;;18.10;76.30;;;;;;5024859;28;20041;-65
2023/03/29 00:56:01;;;;;;;1.15;0.75;;;18.10;76.30;;;;;;5025476;28;20049;-65
2023/03/29 00:58:41;;;;;;;1.80;0.93;;;18.10;76.30;;;;;;5004589;28;20057;-66
2023/03/29 01:01:14;;;;;;;2.05;0.98;;;18.10;76.30;;;;;;5024834;28;20132;-65
2023/03/29 01:03:45;;;;;;;1.98;0.95;;;18.10;76.30;;;;;;5024745;28;20088;-65
2023/03/29 01:06:14;;;;;;;1.70;0.90;;;18.10;76.30;;;;;;5023506;28;20380;-66
2023/03/29 01:08:53;;;;;;;2.97;0.95;;;18.10;76.30;;;;;;5023510;28;20511;-65
2023/03/29 01:11:31;;;;;;;2.97;1.10;;;18.10;76.40;;;;;;5031748;28;20053;-66
2023/03/29 01:13:58;;;;;;;2.47;1.02;;;18.10;76.40;;;;;;5044992;28;20420;-65
2023/03/29 01:16:27;;;;;;;2.17;1.00;;;18.10;76.40;;;;;;5043963;28;20088;-65
2023/03/29 01:18:53;;;;;;;2.10;1.00;;;18.10;76.40;;;;;;5026502;28;20075;-65
2023/03/29 01:21:22;;;;;;;1.52;0.82;;;18.00;76.40;;;;;;5045511;28;20064;-65
2023/03/29 01:24:14;;;;;;;1.63;0.85;;;18.10;76.50;;;;;;5042833;28;20369;-65
2023/03/29 01:27:33;;;;;;;2.72;1.13;;;18.00;76.40;;;;;;5044680;28;20049;-65
2023/03/29 01:30:04;;;;;;;0.88;0.70;;;18.00;76.50;;;;;;5002836;28;20057;-66
2023/03/29 01:32:34;;;;;;;1.88;1.10;;;18.00;76.50;;;;;;5040816;28;20093;-66
2023/03/29 01:35:09;;;;;;;1.80;0.88;;;18.00;76.50;;;;;;5043449;28;20057;-67
2023/03/29 01:38:23;;;;;;;1.67;0.80;;;18.00;76.50;;;;;;5042753;28;20048;-66
2023/03/29 01:40:49;;;;;;;2.55;0.80;;;18.00;76.50;;;;;;5035133;28;20048;-66
2023/03/29 01:43:23;;;;;;;2.35;0.90;;;18.00;76.60;;;;;;5043910;28;20120;-66
2023/03/29 01:46:10;;;;;;;1.60;0.98;;;18.00;76.60;;;;;;5044185;28;20126;-65
2023/03/29 01:48:42;;;;;;;1.77;0.90;;;18.00;76.50;;;;;;5043618;28;20052;-65
2023/03/29 01:51:16;;;;;;;2.25;1.00;;;18.00;76.50;;;;;;5044497;28;20391;-65
2023/03/29 01:53:56;;;;;;;1.80;0.90;;;18.00;76.60;;;;;;5042658;28;20604;-66
2023/03/29 01:56:26;;;;;;;2.42;1.05;;;17.90;76.50;;;;;;5044516;28;20523;-65
2023/03/29 01:59:03;;;;;;;2.05;0.88;;;17.90;76.50;;;;;;5044287;28;20071;-65
2023/03/29 02:01:37;;;;;;;1.48;0.90;;;17.90;76.60;;;;;;5043636;28;20067;-66
2023/03/29 02:04:09;;;;;;;1.93;0.97;;;17.90;76.60;;;;;;5044655;28;20476;-65
2023/03/29 02:06:36;;;;;;;1.58;0.85;;;17.90;76.60;;;;;;5026197;28;20314;-66
2023/03/29 02:09:03;;;;;;;1.42;0.70;;;17.90;76.60;;;;;;5043076;28;20053;-66
2023/03/29 02:11:29;;;;;;;1.80;1.00;;;17.90;76.60;;;;;;5044314;28;20037;-65
2023/03/29 02:13:56;;;;;;;1.67;0.80;;;17.90;76.70;;;;;;5043708;28;20043;-65
2023/03/29 02:16:22;;;;;;;2.05;0.93;;;17.80;76.60;;;;;;5043515;28;20060;-66
2023/03/29 02:18:51;;;;;;;1.42;0.80;;;17.80;76.60;;;;;;5043935;28;20029;-66
2023/03/29 02:21:30;;;;;;;1.95;1.10;;;17.80;76.70;;;;;;5042561;28;20483;-65
2023/03/29 02:24:00;;;;;;;1.67;0.80;;;17.90;76.80;;;;;;5042118;28;20048;-66
2023/03/29 02:26:27;;;;;;;1.00;0.68;;;17.30;76.50;;;;;;5044299;28;20103;-66
2023/03/29 02:28:54;;;;;;;1.98;0.88;;;17.90;76.80;;;;;;5043854;28;20067;-65
2023/03/29 02:31:29;;;;;;;1.25;0.70;;;17.80;76.80;;;;;;5043463;28;20053;-66
2023/03/29 02:34:03;;;;;;;1.83;1.00;;;17.80;76.80;;;;;;5044209;28;20045;-65
2023/03/29 02:36:39;;;;;;;;;;;17.80;76.80;;;;;;5044783;28;20463;-65
2023/03/29 02:39:08;;;;;;;1.60;0.80;;;17.80;76.80;;;;;;5042209;28;19996;-66
2023/03/29 02:41:36;;;;;;;2.38;1.00;;;17.80;76.80;;;;;;5043051;28;20496;-67
2023/03/29 02:44:06;;;;;;;1.73;0.77;;;17.80;76.80;;;;;;5043269;28;20041;-66
2023/03/29 02:46:32;;;;;;;1.55;0.80;;;17.80;77.40;;;;;;5043491;28;20400;-65
2023/03/29 02:48:58;;;;;;;1.63;0.90;;;17.80;76.80;;;;;;5042458;28;20128;-65
2023/03/29 02:51:30;;;;;;;1.55;0.90;;;17.80;76.70;;;;;;5042848;28;20519;-66
2023/03/29 02:54:07;;;;;;;1.55;0.73;;;17.80;76.80;;;;;;5042807;28;20060;-65
2023/03/29 02:56:53;;;;;;;1.70;0.98;;;17.80;76.80;;;;;;5045219;28;20447;-65
2023/03/29 02:59:21;;;;;;;2.45;1.00;;;17.80;76.80;;;;;;5047699;28;20488;-66
2023/03/29 03:01:47;;;;;;;1.50;0.88;;;17.80;76.80;;;;;;5046989;28;20041;-66
2023/03/29 03:04:14;;;;;;;1.77;0.95;;;17.70;76.90;;;;;;5047303;28;20051;-66
2023/03/29 03:06:40;;;;;;;1.95;0.82;;;17.70;76.80;;;;;;5046672;28;20049;-65
2023/03/29 03:09:06;;;;;;;2.90;1.00;;;17.70;76.80;;;;;;5047044;28;20052;-67
2023/03/29 03:11:33;;;;;;;1.70;0.88;;;17.70;76.80;;;;;;5047924;28;20436;-65
2023/03/29 03:13:58;;;;;;;2.92;0.90;;;17.70;76.80;;;;;;5045514;28;20372;-66
2023/03/29 03:16:25;;;;;;;2.30;0.98;;;17.70;76.80;;;;;;5045950;28;20114;-65
2023/03/29 03:18:52;;;;;;;2.15;1.10;;;17.70;76.70;;;;;;5046113;28;20140;-65
2023/03/29 03:21:18;;;;;;;2.65;0.90;;;17.70;76.80;;;;;;5045687;28;20044;-66
2023/03/29 03:23:46;;;;;;;2.08;1.10;;;17.70;76.80;;;;;;5046399;28;20086;-66
2023/03/29 03:26:12;;;;;;;2.20;1.00;;;17.70;76.80;;;;;;5047250;28;20665;-65
2023/03/29 03:28:38;;;;;;;2.00;1.10;;;17.70;76.80;;;;;;5047158;28;20451;-65
2023/03/29 03:31:05;;;;;;;1.08;0.80;;;17.70;76.80;;;;;;5047155;28;20510;-66
2023/03/29 03:33:30;;;;;;;1.60;0.90;;;17.70;76.80;;;;;;5046602;28;20045;-65
2023/03/29 03:36:01;;;;;;;2.08;1.10;;;17.70;76.90;;;;;;5047568;28;20040;-66
2023/03/29 03:38:28;;;;;;;1.75;1.08;;;17.70;76.90;;;;;;5045537;28;20136;-65
2023/03/29 03:41:00;;;;;;;2.03;1.05;;;17.60;76.80;;;;;;5045371;28;20053;-65
2023/03/29 03:43:27;;;;;;;1.55;0.98;;;17.60;76.80;;;;;;5046831;28;20048;-66
2023/03/29 03:45:53;;;;;;;1.70;0.88;;;17.60;76.80;;;;;;5044777;28;20044;-66
2023/03/29 03:48:19;;;;;;;1.98;1.20;;;17.60;76.90;;;;;;5047117;28;20041;-65
2023/03/29 03:50:48;;;;;;;1.50;1.00;;;17.60;76.80;;;;;;5046210;28;20551;-65
2023/03/29 03:53:15;;;;;;;1.45;1.02;;;17.60;76.90;;;;;;5045274;28;20045;-66
2023/03/29 03:55:41;;;;;;;2.55;1.30;;;17.60;76.80;;;;;;5046476;28;20041;-65
2023/03/29 03:58:07;;;;;;;2.47;1.20;;;17.60;76.90;;;;;;5046612;28;20056;-65
2023/03/29 04:00:33;;;;;;;1.88;1.10;;;17.50;76.80;;;;;;5046010;28;20052;-65
2023/03/29 04:03:00;;;;;;;2.88;1.38;;;17.50;76.80;;;;;;5045270;28;20056;-65
2023/03/29 04:05:26;;;;;;;2.65;1.20;;;17.60;76.80;;;;;;5046367;28;20053;-66
2023/03/29 04:07:53;;;;;;;1.98;1.20;;;17.50;76.80;;;;;;5042644;28;20060;-65
2023/03/29 04:10:19;;;;;;;2.22;1.27;;;17.50;76.80;;;;;;5044405;28;20053;-66
2023/03/29 04:12:45;;;;;;;1.88;1.27;;;17.60;76.80;;;;;;5045526;28;20064;-65
2023/03/29 04:15:11;;;;;;;2.35;1.10;;;17.50;76.80;;;;;;5045132;28;20041;-66
2023/03/29 04:17:37;;;;;;;2.45;1.45;;;17.50;76.80;;;;;;5044843;28;20037;-65
2023/03/29 04:20:09;;;;;;;2.20;1.23;;;17.50;76.80;;;;;;5044300;28;20047;-65
2023/03/29 04:22:35;;;;;;;3.97;1.30;;;17.50;76.80;;;;;;5044870;28;20045;-65
2023/03/29 04:25:01;;;;;;;2.22;1.23;;;17.50;76.80;;;;;;5046082;28;20124;-66
2023/03/29 04:27:27;;;;;;;2.33;1.42;;;17.50;76.80;;;;;;5045380;28;20047;-65
2023/03/29 04:29:52;;;;;;;2.45;1.48;;;17.50;76.90;;;;;;5046048;28;20051;-65
2023/03/29 04:32:18;;;;;;;2.50;1.10;;;17.50;76.80;;;;;;5045831;28;20037;-66
2023/03/29 04:34:43;;;;;;;2.80;1.30;;;17.40;76.80;;;;;;5046073;28;20041;-66
2023/03/29 04:37:09;;;;;;;2.03;1.15;;;17.50;76.90;;;;;;5044891;28;20400;-65
2023/03/29 04:39:36;;;;;;;2.22;1.20;;;17.50;76.90;;;;;;5046016;28;20538;-66
2023/03/29 04:42:02;;;;;;;1.90;1.10;;;17.50;76.90;;;;;;5045754;28;20041;-65
2023/03/29 04:44:28;;;;;;;2.92;1.83;;;17.40;76.90;;;;;;5045053;28;20505;-65
2023/03/29 04:46:54;;;;;;;3.63;1.80;;;17.40;76.80;;;;;;5045611;28;20049;-65
2023/03/29 04:49:19;;;;;;;2.22;1.30;;;17.40;76.90;;;;;;5045817;28;20615;-65
2023/03/29 04:51:46;;;;;;;2.50;1.45;;;17.40;76.80;;;;;;5044781;28;20037;-65
2023/03/29 04:54:12;;;;;;;2.22;1.25;;;17.40;76.80;;;;;;5044750;28;20133;-66
2023/03/29 04:56:37;;;;;;;2.33;1.33;;;17.40;76.90;;;;;;5045328;28;20615;-66
2023/03/29 04:59:03;;;;;;;2.17;1.23;;;17.40;76.90;;;;;;5045414;28;20106;-66
2023/03/29 05:01:29;;;;;;;2.60;1.52;;;17.40;76.90;;;;;;5044562;28;20239;-66
2023/03/29 05:03:55;;;;;;;2.42;1.50;;;17.40;76.90;;;;;;5043487;28;20132;-65
2023/03/29 05:06:21;;;;;;;2.90;1.50;;;17.40;76.90;;;;;;5044458;28;20053;-65
2023/03/29 05:08:46;;;;;;;2.17;1.40;;;17.40;76.90;;;;;;5044977;28;20052;-65
2023/03/29 05:11:12;;;;;;;2.80;1.50;;;17.40;76.90;;;;;;5044225;28;20136;-66
2023/03/29 05:13:38;;;;;;;2.63;1.50;;;17.40;76.90;;;;;;5044946;28;20045;-65
2023/03/29 05:16:06;;;;;;;2.83;1.40;;;17.40;77.00;;;;;;5044435;28;20053;-65
2023/03/29 05:18:32;;;;;;;2.20;1.38;;;17.40;76.90;;;;;;5043507;28;20084;-65
2023/03/29 05:20:58;;;;;;;2.13;1.27;;;17.40;77.00;;;;;;5044120;28;20097;-65
2023/03/29 05:23:25;;;;;;;2.55;1.42;;;17.30;77.00;;;;;;5041757;28;20499;-65
2023/03/29 05:25:54;;;;;;;2.63;1.27;;;17.30;76.90;;;;;;5044629;28;20095;-65
2023/03/29 05:28:20;;;;;;;2.20;1.30;;;17.40;77.00;;;;;;5044818;28;20095;-66
2023/03/29 05:30:46;;;;;;;2.15;1.17;;;17.40;77.00;;;;;;5044095;28;20064;-65
2023/03/29 05:33:12;;;;;;;2.55;1.05;;;17.40;77.00;;;;;;5044335;28;20063;-66
2023/03/29 05:35:37;;;;;;;1.90;1.10;;;17.50;77.00;;;;;;5044144;28;20127;-65
2023/03/29 05:38:04;;;;;;;2.08;1.20;;;17.60;77.00;;;;;;5043545;28;20040;-65
2023/03/29 05:40:30;;;;;;;2.55;1.42;;;17.70;76.80;;;;;;5043389;28;20052;-65
2023/03/29 05:42:58;;;;;;;2.00;1.10;;;18.00;76.60;;;;;;5044339;28;20029;-65
2023/03/29 05:45:27;;;;;;;2.05;1.10;;;18.10;76.40;;;;;;5043641;28;20044;-65
2023/03/29 05:47:52;;;;;;;2.65;1.30;;;18.20;76.30;;;;;;5044481;28;20056;-65
2023/03/29 05:50:18;;;;;;;1.95;1.10;;;18.30;76.20;;;;;;5044363;28;20460;-65
2023/03/29 05:52:44;;;;;;;2.03;1.10;;;18.40;76.10;;;;;;5042918;28;20119;-65
2023/03/29 05:55:10;;;;;;;2.20;1.20;;;18.40;76.10;;;;;;5044209;28;20725;-65
2023/03/29 05:57:37;;;;;;;2.38;1.10;;;18.40;76.00;;;;;;5043781;28;20059;-65
2023/03/29 06:00:28;;;;;;;2.13;1.05;;;18.40;76.00;;;;;;5042591;28;20071;-66
2023/03/29 06:02:51;;;;;;;2.00;1.05;;;18.40;76.10;;;;;;5041394;28;20115;-65
2023/03/29 06:05:19;;;;;;;2.03;1.10;;;18.40;76.10;;;;;;5043820;28;20136;-66
2023/03/29 06:07:45;;;;;;;2.15;1.00;;;18.40;76.10;;;;;;5043407;28;20056;-65
2023/03/29 06:10:11;;;;;;;1.73;1.08;;;18.40;76.10;;;;;;5043946;28;20043;-65
2023/03/29 06:12:37;;;;;;;1.75;0.90;;;18.40;76.10;;;;;;5043620;28;20048;-65
2023/03/29 06:15:04;;;;;;;2.40;1.10;;;18.50;76.10;;;;;;5043277;28;20079;-65
2023/03/29 06:17:33;;;;;;;2.85;1.20;;;18.50;76.20;;;;;;5043808;28;20041;-66
2023/03/29 06:19:59;;;;;;;1.83;1.08;;;18.50;76.20;;;;;;5043490;28;20059;-66
2023/03/29 06:22:26;;;;;;;1.48;1.02;;;18.40;76.20;;;;;;5042563;28;20724;-66
2023/03/29 06:24:52;;;;;;;2.13;1.00;;;18.40;76.20;;;;;;5043490;28;20423;-65
2023/03/29 06:27:18;;;;;;;2.20;1.10;;;18.40;76.20;;;;;;5044029;28;20041;-67
2023/03/29 06:29:44;;;;;;;2.05;1.00;;;18.40;76.30;;;;;;5044056;28;20041;-65
2023/03/29 06:32:10;;;;;;;2.40;0.98;;;18.40;76.30;;;;;;5042608;28;20443;-66
2023/03/29 06:34:36;;;;;;;1.23;0.80;;;18.50;76.40;;;;;;5043827;28;20462;-65
2023/03/29 06:37:02;;;;;;;1.77;0.98;;;18.40;76.40;;;;;;5043166;28;20124;-66
2023/03/29 06:39:28;;;;;;;1.92;1.00;;;18.50;76.50;;;;;;5042731;28;20132;-66
2023/03/29 06:41:54;;;;;;;1.85;0.98;;;18.50;76.40;;;;;;5043036;28;20056;-66
2023/03/29 06:44:20;;;;;;;1.95;0.82;;;18.50;76.50;;;;;;5042539;28;20106;-65
2023/03/29 06:46:46;;;;;;;2.17;1.20;;;18.50;76.50;;;;;;5044339;28;20041;-66
2023/03/29 06:49:12;;;;;;;1.80;0.90;;;18.50;76.60;;;;;;5043209;28;20091;-66
2023/03/29 06:51:39;;;;;;;1.83;0.95;;;18.40;76.50;;;;;;5042685;28;20045;-66
2023/03/29 06:54:04;;;;;;;1.38;0.90;;;18.40;76.60;;;;;;5043633;28;20052;-66
2023/03/29 06:56:31;;;;;;;2.15;1.10;;;18.40;76.60;;;;;;5043691;28;20476;-66
2023/03/29 06:58:56;;;;;;;1.95;1.25;;;18.40;76.60;;;;;;5042114;28;20080;-66
2023/03/29 07:01:22;;;;;;;1.65;0.90;;;18.50;76.70;;;;;;5042528;28;20478;-66
2023/03/29 07:03:48;;;;;;;1.80;0.80;;;18.50;76.80;;;;;;5043171;28;20041;-66
2023/03/29 07:06:16;;;;;;;2.17;1.00;;;18.50;76.90;;;;;;5042600;28;21248;-66
2023/03/29 07:08:42;;;;;;;2.22;1.17;;;18.50;76.80;;;;;;5043393;28;20052;-66
2023/03/29 07:11:13;;;;;;;1.30;0.80;;;18.50;76.80;;;;;;5043343;28;20704;-66
2023/03/29 07:13:42;;;;;;;1.30;0.73;;;18.50;77.00;;;;;;5042423;28;20049;-65
2023/03/29 07:16:12;;;;;;;1.90;1.10;;;18.50;76.80;;;;;;5043679;28;20048;-66
2023/03/29 07:18:42;;;;;;;2.40;1.10;;;18.50;76.90;;;;;;5043669;28;20047;-66
2023/03/29 07:21:10;;;;;;;2.03;1.00;;;18.50;76.90;;;;;;5040970;28;20041;-65
2023/03/29 07:23:36;;;;;;;1.67;1.10;;;18.50;76.90;;;;;;5043217;28;20040;-66
2023/03/29 07:26:02;;;;;;;2.28;1.13;;;18.50;76.90;;;;;;5043354;28;20041;-65
2023/03/29 07:28:28;;;;;;;2.15;0.90;;;18.50;77.00;;;;;;5042847;28;20047;-65
2023/03/29 07:31:04;;;;;;;2.47;1.10;;;18.50;77.00;;;;;;5043470;28;20546;-65
2023/03/29 07:33:29;;;;;;;3.80;1.30;;;18.50;77.10;;;;;;5043364;28;20438;-65
2023/03/29 07:35:56;;;;;;;3.97;1.23;;;18.60;77.10;;;;;;5042049;28;20045;-66
2023/03/29 07:38:21;;;;;;;2.80;1.30;;;18.70;77.20;;;;;;5040816;28;20048;-67
2023/03/29 07:40:47;;;;;;;1.88;1.13;;;18.70;77.20;;;;;;5042580;28;20052;-66
2023/03/29 07:43:13;;;;;;;3.70;1.30;;;18.60;77.30;;;;;;5044238;28;20056;-66
2023/03/29 07:45:41;;;;;;;1.83;1.20;;;18.60;77.50;;;;;;5045960;28;20512;-65
2023/03/29 07:48:07;;;;;;;2.10;1.20;;;18.50;77.50;;;;;;5046912;28;20434;-66
2023/03/29 07:50:33;;;;;;;2.42;1.40;;;18.50;77.60;;;;;;5045787;28;20098;-66
2023/03/29 07:53:00;;;;;;;2.58;1.40;;;18.50;77.70;;;;;;5045330;28;20045;-66
2023/03/29 07:55:26;;;;;;;3.08;1.42;;;18.50;77.80;;;;;;5039222;28;20054;-66
2023/03/29 07:57:52;;;;;;;1.95;1.23;;;18.40;77.80;;;;;;5036035;28;20152;-67
2023/03/29 08:00:18;;;;;;;2.72;1.15;;;18.50;77.90;;;;;;5041808;28;20140;-66
2023/03/29 08:02:46;;;;;;;2.95;1.45;;;18.50;78.00;;;;;;5038637;28;20053;-67
2023/03/29 08:05:13;;;;;;;2.47;1.25;;;18.50;77.90;;;;;;5045507;28;20084;-66
2023/03/29 08:07:43;;;;;;;2.70;1.20;;;18.50;77.90;;;;;;5044991;28;20180;-66
2023/03/29 08:10:12;;;;;;;2.38;1.40;;;18.50;77.80;;;;;;5043573;28;20091;-66
2023/03/29 08:12:39;;;;;;;2.55;1.30;;;18.50;77.60;;;;;;5046577;28;20033;-66
2023/03/29 08:15:05;;;;;;;2.15;1.30;;;18.60;77.70;;;;;;5045158;28;20056;-66
2023/03/29 08:17:32;;;;;;;3.25;1.58;;;18.50;77.70;;;;;;5045859;28;20051;-66
2023/03/29 08:19:58;;;;;;;2.65;1.45;;;18.50;77.80;;;;;;5046575;28;20087;-67
2023/03/29 08:22:24;;;;;;;4.05;1.30;;;18.50;77.80;;;;;;5045178;28;20072;-68
2023/03/29 08:24:50;;;;;;;5.90;1.73;;;18.60;78.20;;;;;;5044444;28;20064;-68
2023/03/29 08:27:16;;;;;;;7.88;2.75;;;18.60;77.50;;;;;;5045632;28;20057;-67
2023/03/29 08:29:42;;;;;;;18.65;4.00;;;18.60;77.50;;;;;;5045633;28;20132;-68
2023/03/29 08:32:07;;;;;;;21.23;4.90;;;18.60;77.50;;;;;;5045972;28;20523;-66
2023/03/29 08:34:34;;;;;;;27.85;5.22;;;18.70;77.40;;;;;;5045478;28;20427;-67
2023/03/29 08:37:00;;;;;;;24.70;6.13;;;18.70;77.50;;;;;;5038824;28;20396;-67
2023/03/29 08:39:26;;;;;;;31.77;6.65;;;18.60;77.70;;;;;;5045603;28;20044;-67
2023/03/29 08:42:11;;;;;;;25.20;5.70;;;18.60;78.00;;;;;;5045965;28;20468;-67
2023/03/29 08:44:45;;;;;;;23.00;5.38;;;18.60;77.90;;;;;;5044245;28;20071;-68
2023/03/29 08:47:39;;;;;;;15.52;4.75;;;18.60;78.00;;;;;;5045817;28;20106;-67
2023/03/29 08:50:05;;;;;;;23.95;6.00;;;18.60;78.10;;;;;;5044978;28;20055;-66
2023/03/29 08:52:34;;;;;;;20.17;4.57;;;18.60;78.20;;;;;;5044911;28;20083;-67
2023/03/29 08:55:02;;;;;;;23.52;5.65;;;18.70;78.10;;;;;;5045094;28;20112;-67
2023/03/29 08:57:30;;;;;;;37.63;6.72;;;18.70;78.10;;;;;;5045444;28;20045;-67
2023/03/29 08:59:59;;;;;;;20.60;5.30;;;18.70;78.20;;;;;;5037021;28;20116;-67
2023/03/29 09:02:29;;;;;;;17.70;5.18;;;18.70;78.20;;;;;;5042849;28;20053;-67
2023/03/29 09:05:01;;;;;;;18.13;4.95;;;18.70;78.20;;;;;;5043803;28;20053;-67
2023/03/29 09:07:27;;;;;;;18.25;4.82;;;18.70;78.40;;;;;;5043365;28;20504;-66
2023/03/29 09:09:53;;;;;;;17.25;4.50;;;18.80;78.30;;;;;;5044393;28;20057;-66
2023/03/29 09:12:30;;;;;;;13.98;3.85;;;18.80;78.30;;;;;;5044848;28;20080;-66
2023/03/29 09:15:26;;;;;;;10.73;3.92;;;18.70;78.40;;;;;;5042752;28;20055;-67
2023/03/29 09:18:20;;;;;;;13.50;3.72;;;18.80;78.30;;;;;;5045109;28;20388;-67
2023/03/29 09:20:54;;;;;;;10.60;3.40;;;18.80;78.30;;;;;;5043574;28;20044;-67
2023/03/29 09:23:35;;;;;;;10.38;2.83;;;18.80;78.30;;;;;;5044720;28;20048;-67
2023/03/29 09:26:37;;;;;;;8.82;3.47;;;18.80;78.30;;;;;;5043959;28;20060;-66
2023/03/29 09:29:23;;;;;;;10.57;3.35;;;18.80;78.20;;;;;;5041492;28;20582;-66
2023/03/29 09:31:50;;;;;;;4.90;2.58;;;18.80;78.30;;;;;;5043521;28;20041;-66
2023/03/29 09:34:26;;;;;;;8.50;2.80;;;18.80;78.80;;;;;;5044468;28;20110;-66
2023/03/29 09:36:55;;;;;;;7.65;2.75;;;18.80;78.30;;;;;;5042051;28;20120;-67
2023/03/29 09:39:22;;;;;;;6.88;2.55;;;18.80;78.20;;;;;;5043995;28;20052;-67
2023/03/29 09:42:00;;;;;;;6.47;2.25;;;18.80;78.20;;;;;;5042465;28;20045;-67
2023/03/29 09:44:34;;;;;;;5.05;2.20;;;18.80;78.10;;;;;;5044542;28;20124;-66
2023/03/29 09:47:18;;;;;;;9.37;2.50;;;18.90;78.30;;;;;;5044311;28;20053;-67
2023/03/29 09:49:48;;;;;;;3.88;2.00;;;18.90;78.20;;;;;;5043725;28;20283;-67
2023/03/29 09:52:15;;;;;;;6.15;2.53;;;18.90;78.20;;;;;;5042517;28;20052;-66
2023/03/29 09:54:42;;;;;;;6.82;1.92;;;19.00;78.20;;;;;;5042451;28;20098;-67
2023/03/29 09:57:14;;;;;;;4.63;2.10;;;19.00;78.20;;;;;;5043464;28;20041;-67
2023/03/29 09:59:39;;;;;;;5.50;2.03;;;19.00;78.30;;;;;;5042072;28;20040;-67
2023/03/29 10:02:12;;;;;;;3.95;1.60;;;19.00;78.40;;;;;;5040785;28;20040;-67
2023/03/29 10:04:41;;;;;;;5.55;1.70;;;19.00;78.70;;;;;;5031194;28;20045;-67
2023/03/29 10:07:16;;;;;;;4.22;1.90;;;19.00;78.60;;;;;;5019897;28;20148;-66
2023/03/29 10:09:44;;;;;;;4.70;2.13;;;19.00;78.70;;;;;;5022286;28;20045;-66
2023/03/29 10:12:11;;;;;;;5.03;2.05;;;19.00;78.70;;;;;;5021539;28;20057;-66
2023/03/29 10:14:43;;;;;;;4.90;1.90;;;19.00;78.80;;;;;;5023062;28;20390;-66
2023/03/29 10:17:24;;;;;;;5.05;2.25;;;18.90;78.80;;;;;;5004536;28;20132;-66
2023/03/29 10:19:58;;;;;;;4.63;1.80;;;18.90;78.80;;;;;;5039261;28;20053;-66
2023/03/29 10:22:27;;;;;;;4.55;1.55;;;18.90;78.90;;;;;;5040965;28;20468;-66
2023/03/29 10:24:56;;;;;;;4.05;1.88;;;18.90;79.00;;;;;;5041639;28;20040;-66
2023/03/29 10:27:25;;;;;;;3.90;1.95;;;18.90;79.00;;;;;;5041903;28;20071;-66
2023/03/29 10:29:52;;;;;;;3.20;1.65;;;18.90;79.10;;;;;;5040818;28;20053;-66
2023/03/29 10:32:24;;;;;;;3.03;1.52;;;18.90;79.20;;;;;;5040662;28;20045;-67
2023/03/29 10:34:50;;;;;;;3.55;1.83;;;18.90;79.30;;;;;;5041302;28;20075;-67
2023/03/29 10:37:21;;;;;;;3.88;1.88;;;18.90;79.40;;;;;;5040569;28;20056;-67
2023/03/29 10:39:49;;;;;;;8.02;2.42;;;18.90;79.40;;;;;;5039820;28;20048;-67
2023/03/29 10:42:17;;;;;;;3.17;1.52;;;18.90;79.50;;;;;;5040340;28;20112;-67
2023/03/29 10:44:52;;;;;;;4.63;1.85;;;18.90;79.40;;;;;;5039761;28;20053;-67
2023/03/29 10:47:20;;;;;;;4.15;1.50;;;18.90;79.50;;;;;;5039870;28;20052;-67
2023/03/29 10:49:57;;;;;;;3.65;1.80;;;18.90;79.50;;;;;;5039923;28;20048;-67
2023/03/29 10:52:24;;;;;;;3.03;1.55;;;18.90;79.50;;;;;;5040290;28;20049;-68
2023/03/29 10:54:52;;;;;;;4.78;1.90;;;18.90;79.60;;;;;;5041058;28;20084;-67
2023/03/29 10:57:23;;;;;;;3.67;1.83;;;18.90;79.60;;;;;;5041102;28;20049;-67
2023/03/29 11:00:03;;;;;;;4.03;1.65;;;18.90;79.70;;;;;;5041466;28;20056;-67
2023/03/29 11:02:35;;;;;;;3.55;1.70;;;18.90;79.80;;;;;;5041768;28;20045;-66
2023/03/29 11:05:23;;;;;;;3.90;2.00;;;18.90;79.80;;;;;;5041103;28;20755;-67
2023/03/29 11:07:55;;;;;;;4.68;2.00;;;18.90;79.90;;;;;;5041717;28;20049;-67
2023/03/29 11:10:35;;;;;;;5.03;1.77;;;18.90;80.00;;;;;;5040998;28;20053;-66
2023/03/29 11:13:19;;;;;;;4.45;1.73;;;18.90;80.10;;;;;;5039892;28;20047;-67
2023/03/29 11:15:56;;;;;;;4.18;1.70;;;18.90;80.20;;;;;;5039160;28;20053;-65
2023/03/29 11:18:34;;;;;;;6.50;1.85;;;18.90;80.30;;;;;;5043906;28;20045;-65
2023/03/29 11:21:16;;;;;;;5.50;1.80;;;19.00;80.50;;;;;;5044683;28;20045;-65
2023/03/29 11:23:52;;;;;;;3.97;1.70;;;19.00;80.40;;;;;;5044862;28;20128;-65
2023/03/29 11:26:31;;;;;;;4.45;1.58;;;19.00;80.30;;;;;;5045202;28;20482;-65
2023/03/29 11:29:19;;;;;;;4.38;1.60;;;19.00;80.30;;;;;;5042943;28;20112;-65
2023/03/29 11:32:22;;;;;;;4.07;1.80;;;19.00;80.30;;;;;;5044342;28;20486;-64
2023/03/29 11:35:35;;;;;;;4.72;1.90;;;19.00;80.30;;;;;;5044729;28;20060;-65
2023/03/29 11:38:25;;;;;;;6.10;1.70;;;19.10;80.40;;;;;;5012273;28;20056;-65
2023/03/29 11:41:17;;;;;;;4.40;1.48;;;19.10;80.40;;;;;;5045084;28;20418;-65
2023/03/29 11:44:08;;;;;;;3.97;1.30;;;19.10;80.30;;;;;;5044285;28;20048;-66
2023/03/29 11:46:33;;;;;;;3.33;1.75;;;19.10;80.30;;;;;;5046309;28;20057;-65
2023/03/29 11:49:16;;;;;;;4.28;1.50;;;19.10;80.20;;;;;;5045284;28;20576;-65
2023/03/29 11:51:53;;;;;;;4.55;1.40;;;19.10;80.20;;;;;;5044530;28;20044;-65
2023/03/29 11:54:44;;;;;;;3.88;1.40;;;19.10;80.30;;;;;;5045585;28;20352;-65
2023/03/29 11:57:25;;;;;;;4.38;1.60;;;19.10;80.30;;;;;;5042405;28;20056;-65
2023/03/29 12:00:26;;;;;;;3.42;1.60;;;19.20;80.40;;;;;;5041347;28;20534;-65
2023/03/29 12:03:05;;;;;;;3.13;1.80;;;19.10;80.30;;;;;;5045891;28;20099;-65
2023/03/29 12:05:42;;;;;;;3.15;1.65;;;19.10;80.40;;;;;;5040061;28;20573;-65
2023/03/29 12:08:15;;;;;;;3.10;1.55;;;19.10;80.40;;;;;;5044760;28;20091;-66
2023/03/29 12:10:59;;;;;;;2.13;1.33;;;19.10;80.40;;;;;;5043297;28;20044;-67
2023/03/29 12:13:46;;;;;;;3.90;1.40;;;19.10;80.50;;;;;;5044323;28;20094;-68
2023/03/29 12:16:33;;;;;;;3.03;1.50;;;19.10;80.60;;;;;;5043693;28;20463;-67
2023/03/29 12:19:37;;;;;;;3.22;1.40;;;19.10;80.70;;;;;;5044133;28;20128;-67
2023/03/29 12:22:06;;;;;;;2.58;1.40;;;19.10;80.80;;;;;;5042573;28;20106;-68
2023/03/29 12:24:36;;;;;;;3.30;1.60;;;19.20;80.90;;;;;;5044729;28;20131;-67
2023/03/29 12:27:33;;;;;;;2.38;1.30;;;19.10;80.80;;;;;;5045066;28;20045;-67
2023/03/29 12:30:14;;;;;;;3.83;1.50;;;19.10;80.90;;;;;;5044408;28;20041;-67
2023/03/29 12:32:43;;;;;;;2.47;1.50;;;19.20;81.00;;;;;;5044220;28;20440;-68
2023/03/29 12:35:33;;;;;;;2.35;1.50;;;19.10;81.00;;;;;;5043335;28;20040;-67
2023/03/29 12:38:21;;;;;;;2.20;1.50;;;19.20;81.00;;;;;;5045478;28;20107;-68
2023/03/29 12:40:54;;;;;;;2.33;1.40;;;19.20;81.10;;;;;;5043695;28;20119;-68
2023/03/29 12:43:32;;;;;;;2.30;1.50;;;19.20;81.10;;;;;;5045109;28;20130;-68
2023/03/29 12:46:31;;;;;;;3.47;1.98;;;19.10;81.10;;;;;;5044623;28;20492;-68
2023/03/29 12:49:06;;;;;;;2.88;1.80;;;19.10;81.20;;;;;;5029194;28;20057;-68
2023/03/29 12:51:33;;;;;;;3.40;1.80;;;19.10;81.20;;;;;;5043578;28;20073;-67
2023/03/29 12:54:24;;;;;;;3.72;1.60;;;19.20;81.20;;;;;;5046224;28;20102;-68
2023/03/29 12:57:17;;;;;;;2.40;1.40;;;19.20;81.20;;;;;;5035678;28;20396;-68
2023/03/29 12:59:46;;;;;;;2.30;1.40;;;19.20;81.20;;;;;;5043910;28;20068;-68
2023/03/29 13:02:12;;;;;;;3.08;1.77;;;19.20;81.30;;;;;;5044021;28;20048;-67
2023/03/29 13:04:47;;;;;;;2.05;1.40;;;19.20;81.30;;;;;;5044678;28;20041;-67
2023/03/29 13:07:14;;;;;;;;;;;19.20;81.40;;;;;;5043537;28;20612;-68